sensor_id;sensor_type;location;lat;lon;timestamp;temperature;humidity
60033;DHT22;45905;50.570;10.428;2023-08-17T00:02:01;20.00;99.90
60033;DHT22;45905;50.570;10.428;2023-08-17T00:04:28;20.10;99.90
60033;DHT22;45905;50.570;10.428;2023-08-17T00:06:55;19.90;99.90
60033;DHT22;45905;50.570;10.428;2023-08-17T00:09:22;20.20;99.90
60033;DHT22;45905;50.570;10.428;2023-08-17T00:11:49;24.00;99.90
60033;DHT22;45905;50.570;10.428;2023-08-17T00:14:18;20.10;99.90
60033;DHT22;45905;50.570;10.428;2023-08-17T00:16:45;19.90;99.90
60033;DHT22;45905;50.570;10.428;2023-08-17T00:19:12;19.90;99.90
60033;DHT22;45905;50.570;10.428;2023-08-17T00:21:39;20.10;99.90
60033;DHT22;45905;50.570;10.428;2023-08-17T00:24:06;19.90;99.90
60033;DHT22;45905;50.570;10.428;2023-08-17T00:26:34;19.70;99.90
60033;DHT22;45905;50.570;10.428;2023-08-17T00:29:01;19.70;99.90
60033;DHT22;45905;50.570;10.428;2023-08-17T00:31:29;19.70;99.90
60033;DHT22;45905;50.570;10.428;2023-08-17T00:33:56;19.60;99.90
60033;DHT22;45905;50.570;10.428;2023-08-17T00:36:24;19.80;99.90
60033;DHT22;45905;50.570;10.428;2023-08-17T00:38:51;19.50;99.90
60033;DHT22;45905;50.570;10.428;2023-08-17T00:41:18;19.50;99.90
60033;DHT22;45905;50.570;10.428;2023-08-17T00:43:45;19.40;99.90
60033;DHT22;45905;50.570;10.428;2023-08-17T00:46:12;19.60;99.90
60033;DHT22;45905;50.570;10.428;2023-08-17T00:48:42;19.40;99.90
60033;DHT22;45905;50.570;10.428;2023-08-17T00:51:09;17.50;99.90
60033;DHT22;45905;50.570;10.428;2023-08-17T00:53:37;19.30;99.90
60033;DHT22;45905;50.570;10.428;2023-08-17T00:56:05;19.50;99.90
60033;DHT22;45905;50.570;10.428;2023-08-17T00:58:32;19.40;99.90
60033;DHT22;45905;50.570;10.428;2023-08-17T01:01:00;18.90;99.90
60033;DHT22;45905;50.570;10.428;2023-08-17T01:03:29;19.40;99.90
60033;DHT22;45905;50.570;10.428;2023-08-17T01:05:57;19.40;99.90
60033;DHT22;45905;50.570;10.428;2023-08-17T01:08:24;19.30;99.90
60033;DHT22;45905;50.570;10.428;2023-08-17T01:13:49;18.70;99.90
60033;DHT22;45905;50.570;10.428;2023-08-17T01:16:35;19.50;99.90
60033;DHT22;45905;50.570;10.428;2023-08-17T01:19:12;19.50;99.90
60033;DHT22;45905;50.570;10.428;2023-08-17T01:21:46;19.50;99.90
60033;DHT22;45905;50.570;10.428;2023-08-17T01:24:18;19.50;99.90
60033;DHT22;45905;50.570;10.428;2023-08-17T01:26:45;19.80;99.90
60033;DHT22;45905;50.570;10.428;2023-08-17T01:29:13;19.60;99.90
60033;DHT22;45905;50.570;10.428;2023-08-17T01:31:51;19.40;99.90
60033;DHT22;45905;50.570;10.428;2023-08-17T01:34:29;19.50;99.90
60033;DHT22;45905;50.570;10.428;2023-08-17T01:37:04;19.40;99.90
60033;DHT22;45905;50.570;10.428;2023-08-17T01:39:37;19.40;99.90
60033;DHT22;45905;50.570;10.428;2023-08-17T01:42:11;19.40;99.90
60033;DHT22;45905;50.570;10.428;2023-08-17T01:44:39;19.30;99.90
60033;DHT22;45905;50.570;10.428;2023-08-17T01:47:07;19.70;99.90
60033;DHT22;45905;50.570;10.428;2023-08-17T01:49:34;19.60;99.90
60033;DHT22;45905;50.570;10.428;2023-08-17T01:52:02;19.30;99.90
60033;DHT22;45905;50.570;10.428;2023-08-17T01:54:29;19.20;99.90
60033;DHT22;45905;50.570;10.428;2023-08-17T01:56:56;19.40;99.90
60033;DHT22;45905;50.570;10.428;2023-08-17T01:59:23;19.20;99.90
60033;DHT22;45905;50.570;10.428;2023-08-17T02:01:51;19.00;99.90
60033;DHT22;45905;50.570;10.428;2023-08-17T02:04:18;19.10;99.90
60033;DHT22;45905;50.570;10.428;2023-08-17T02:06:45;19.20;99.90
60033;DHT22;45905;50.570;10.428;2023-08-17T02:09:12;19.20;99.90
60033;DHT22;45905;50.570;10.428;2023-08-17T02:11:39;18.90;99.90
60033;DHT22;45905;50.570;10.428;2023-08-17T02:14:07;18.90;99.90
60033;DHT22;45905;50.570;10.428;2023-08-17T02:16:34;18.90;99.90
60033;DHT22;45905;50.570;10.428;2023-08-17T02:19:01;18.10;99.90
60033;DHT22;45905;50.570;10.428;2023-08-17T02:21:28;19.30;99.90
60033;DHT22;45905;50.570;10.428;2023-08-17T02:23:55;19.00;99.90
60033;DHT22;45905;50.570;10.428;2023-08-17T02:26:23;19.00;99.90
60033;DHT22;45905;50.570;10.428;2023-08-17T02:28:50;19.00;99.90
60033;DHT22;45905;50.570;10.428;2023-08-17T02:31:17;19.20;99.90
60033;DHT22;45905;50.570;10.428;2023-08-17T02:33:44;19.20;99.90
60033;DHT22;45905;50.570;10.428;2023-08-17T02:36:12;19.10;99.90
60033;DHT22;45905;50.570;10.428;2023-08-17T02:38:39;19.20;99.90
60033;DHT22;45905;50.570;10.428;2023-08-17T02:41:06;19.00;99.90
60033;DHT22;45905;50.570;10.428;2023-08-17T02:43:34;19.10;99.90
60033;DHT22;45905;50.570;10.428;2023-08-17T02:46:01;19.00;99.90
60033;DHT22;45905;50.570;10.428;2023-08-17T02:48:30;19.00;99.90
60033;DHT22;45905;50.570;10.428;2023-08-17T02:50:59;19.00;99.90
60033;DHT22;45905;50.570;10.428;2023-08-17T02:53:26;19.00;99.90
60033;DHT22;45905;50.570;10.428;2023-08-17T02:55:53;18.60;99.90
60033;DHT22;45905;50.570;10.428;2023-08-17T02:58:20;18.90;99.90
60033;DHT22;45905;50.570;10.428;2023-08-17T03:00:47;18.90;99.90
60033;DHT22;45905;50.570;10.428;2023-08-17T03:03:18;18.60;99.90
60033;DHT22;45905;50.570;10.428;2023-08-17T03:05:45;18.80;99.90
60033;DHT22;45905;50.570;10.428;2023-08-17T03:08:12;19.40;99.90
60033;DHT22;45905;50.570;10.428;2023-08-17T03:10:39;18.80;99.90
60033;DHT22;45905;50.570;10.428;2023-08-17T03:13:08;19.00;99.90
60033;DHT22;45905;50.570;10.428;2023-08-17T03:15:35;20.10;99.90
60033;DHT22;45905;50.570;10.428;2023-08-17T03:18:07;19.00;99.90
60033;DHT22;45905;50.570;10.428;2023-08-17T03:20:34;18.80;99.90
60033;DHT22;45905;50.570;10.428;2023-08-17T03:23:02;18.80;99.90
60033;DHT22;45905;50.570;10.428;2023-08-17T03:25:34;18.60;99.90
60033;DHT22;45905;50.570;10.428;2023-08-17T03:28:01;18.50;99.90
60033;DHT22;45905;50.570;10.428;2023-08-17T03:30:29;18.90;99.90
60033;DHT22;45905;50.570;10.428;2023-08-17T03:32:56;18.80;99.90
60033;DHT22;45905;50.570;10.428;2023-08-17T03:35:25;18.60;99.90
60033;DHT22;45905;50.570;10.428;2023-08-17T03:37:52;18.60;99.90
60033;DHT22;45905;50.570;10.428;2023-08-17T03:40:20;18.90;99.90
60033;DHT22;45905;50.570;10.428;2023-08-17T03:42:47;18.60;99.90
60033;DHT22;45905;50.570;10.428;2023-08-17T03:45:14;18.50;99.90
60033;DHT22;45905;50.570;10.428;2023-08-17T03:47:43;18.00;99.90
60033;DHT22;45905;50.570;10.428;2023-08-17T03:50:11;18.50;99.90
60033;DHT22;45905;50.570;10.428;2023-08-17T03:52:38;18.40;99.90
60033;DHT22;45905;50.570;10.428;2023-08-17T03:55:06;18.40;99.90
60033;DHT22;45905;50.570;10.428;2023-08-17T03:57:34;18.40;99.90
60033;DHT22;45905;50.570;10.428;2023-08-17T04:00:06;18.50;99.90
60033;DHT22;45905;50.570;10.428;2023-08-17T04:02:39;18.40;99.90
60033;DHT22;45905;50.570;10.428;2023-08-17T04:05:07;18.20;99.90
60033;DHT22;45905;50.570;10.428;2023-08-17T04:07:36;18.40;99.90
60033;DHT22;45905;50.570;10.428;2023-08-17T04:10:05;18.20;99.90
60033;DHT22;45905;50.570;10.428;2023-08-17T04:12:34;18.00;99.90
60033;DHT22;45905;50.570;10.428;2023-08-17T04:15:01;18.50;99.90
60033;DHT22;45905;50.570;10.428;2023-08-17T04:17:30;18.30;99.90
60033;DHT22;45905;50.570;10.428;2023-08-17T04:19:57;18.70;99.90
60033;DHT22;45905;50.570;10.428;2023-08-17T04:22:25;18.20;99.90
60033;DHT22;45905;50.570;10.428;2023-08-17T04:24:52;18.40;99.90
60033;DHT22;45905;50.570;10.428;2023-08-17T04:27:21;17.80;99.90
60033;DHT22;45905;50.570;10.428;2023-08-17T04:29:48;18.40;99.90
60033;DHT22;45905;50.570;10.428;2023-08-17T04:32:16;18.40;99.90
60033;DHT22;45905;50.570;10.428;2023-08-17T04:34:44;18.40;99.90
60033;DHT22;45905;50.570;10.428;2023-08-17T04:37:14;18.20;99.90
60033;DHT22;45905;50.570;10.428;2023-08-17T04:39:42;18.30;99.90
60033;DHT22;45905;50.570;10.428;2023-08-17T04:42:15;18.20;99.90
60033;DHT22;45905;50.570;10.428;2023-08-17T04:44:43;18.10;99.90
60033;DHT22;45905;50.570;10.428;2023-08-17T04:47:10;18.40;99.90
60033;DHT22;45905;50.570;10.428;2023-08-17T04:49:38;18.20;99.90
60033;DHT22;45905;50.570;10.428;2023-08-17T04:52:05;18.40;99.90
60033;DHT22;45905;50.570;10.428;2023-08-17T04:54:33;18.20;99.90
60033;DHT22;45905;50.570;10.428;2023-08-17T04:57:00;18.00;99.90
60033;DHT22;45905;50.570;10.428;2023-08-17T04:59:28;18.20;99.90
60033;DHT22;45905;50.570;10.428;2023-08-17T05:01:55;18.20;99.90
60033;DHT22;45905;50.570;10.428;2023-08-17T05:04:22;18.30;99.90
60033;DHT22;45905;50.570;10.428;2023-08-17T05:06:50;18.10;99.90
60033;DHT22;45905;50.570;10.428;2023-08-17T05:09:18;18.20;99.90
60033;DHT22;45905;50.570;10.428;2023-08-17T05:11:46;18.50;99.90
60033;DHT22;45905;50.570;10.428;2023-08-17T05:14:13;18.30;99.90
60033;DHT22;45905;50.570;10.428;2023-08-17T05:16:40;18.30;99.90
60033;DHT22;45905;50.570;10.428;2023-08-17T05:19:07;18.30;99.90
60033;DHT22;45905;50.570;10.428;2023-08-17T05:21:35;18.30;99.90
60033;DHT22;45905;50.570;10.428;2023-08-17T05:24:07;18.00;99.90
60033;DHT22;45905;50.570;10.428;2023-08-17T05:26:35;18.30;99.90
60033;DHT22;45905;50.570;10.428;2023-08-17T05:29:02;18.30;99.90
60033;DHT22;45905;50.570;10.428;2023-08-17T05:31:29;18.40;99.90
60033;DHT22;45905;50.570;10.428;2023-08-17T05:33:57;18.40;99.90
60033;DHT22;45905;50.570;10.428;2023-08-17T05:36:24;18.50;99.90
60033;DHT22;45905;50.570;10.428;2023-08-17T05:38:51;18.60;99.90
60033;DHT22;45905;50.570;10.428;2023-08-17T05:41:19;18.50;99.90
60033;DHT22;45905;50.570;10.428;2023-08-17T05:43:47;18.50;99.90
60033;DHT22;45905;50.570;10.428;2023-08-17T05:46:15;18.50;99.90
60033;DHT22;45905;50.570;10.428;2023-08-17T05:48:42;18.10;99.90
60033;DHT22;45905;50.570;10.428;2023-08-17T05:51:09;18.50;99.90
60033;DHT22;45905;50.570;10.428;2023-08-17T05:53:36;15.40;99.90
60033;DHT22;45905;50.570;10.428;2023-08-17T05:56:04;18.50;99.90
60033;DHT22;45905;50.570;10.428;2023-08-17T05:58:31;18.60;99.90
60033;DHT22;45905;50.570;10.428;2023-08-17T06:01:05;18.60;99.90
60033;DHT22;45905;50.570;10.428;2023-08-17T06:03:35;18.60;99.90
60033;DHT22;45905;50.570;10.428;2023-08-17T06:06:03;18.70;99.90
60033;DHT22;45905;50.570;10.428;2023-08-17T06:08:32;18.60;99.90
60033;DHT22;45905;50.570;10.428;2023-08-17T06:10:59;18.70;99.90
60033;DHT22;45905;50.570;10.428;2023-08-17T06:13:27;18.70;99.90
60033;DHT22;45905;50.570;10.428;2023-08-17T06:15:56;18.80;99.90
60033;DHT22;45905;50.570;10.428;2023-08-17T06:18:24;18.70;99.90
60033;DHT22;45905;50.570;10.428;2023-08-17T06:20:52;18.50;99.90
60033;DHT22;45905;50.570;10.428;2023-08-17T06:23:20;18.90;99.90
60033;DHT22;45905;50.570;10.428;2023-08-17T06:25:47;18.80;99.90
60033;DHT22;45905;50.570;10.428;2023-08-17T06:30:42;18.90;99.90
60033;DHT22;45905;50.570;10.428;2023-08-17T06:33:09;18.90;99.90
60033;DHT22;45905;50.570;10.428;2023-08-17T06:35:37;18.90;99.90
60033;DHT22;45905;50.570;10.428;2023-08-17T06:38:04;19.00;99.90
60033;DHT22;45905;50.570;10.428;2023-08-17T06:40:31;19.10;99.90
60033;DHT22;45905;50.570;10.428;2023-08-17T06:42:58;19.00;99.90
60033;DHT22;45905;50.570;10.428;2023-08-17T06:45:26;19.00;99.90
60033;DHT22;45905;50.570;10.428;2023-08-17T06:47:53;18.80;99.90
60033;DHT22;45905;50.570;10.428;2023-08-17T06:50:20;19.00;99.90
60033;DHT22;45905;50.570;10.428;2023-08-17T06:52:47;21.40;99.90
60033;DHT22;45905;50.570;10.428;2023-08-17T06:55:15;19.20;99.90
60033;DHT22;45905;50.570;10.428;2023-08-17T06:57:43;19.00;99.90
60033;DHT22;45905;50.570;10.428;2023-08-17T07:00:11;19.00;99.90
60033;DHT22;45905;50.570;10.428;2023-08-17T07:02:39;19.00;99.90
60033;DHT22;45905;50.570;10.428;2023-08-17T07:05:19;19.20;99.90
60033;DHT22;45905;50.570;10.428;2023-08-17T07:07:46;19.30;99.90
60033;DHT22;45905;50.570;10.428;2023-08-17T07:10:13;19.10;99.90
60033;DHT22;45905;50.570;10.428;2023-08-17T07:12:41;19.20;99.90
60033;DHT22;45905;50.570;10.428;2023-08-17T07:15:08;19.10;99.90
60033;DHT22;45905;50.570;10.428;2023-08-17T07:17:35;19.10;99.90
60033;DHT22;45905;50.570;10.428;2023-08-17T07:20:04;19.50;99.90
60033;DHT22;45905;50.570;10.428;2023-08-17T07:22:43;19.20;99.90
60033;DHT22;45905;50.570;10.428;2023-08-17T07:25:10;19.40;99.90
60033;DHT22;45905;50.570;10.428;2023-08-17T07:27:38;19.20;99.90
60033;DHT22;45905;50.570;10.428;2023-08-17T07:30:05;19.20;99.90
60033;DHT22;45905;50.570;10.428;2023-08-17T07:32:34;19.20;99.90
60033;DHT22;45905;50.570;10.428;2023-08-17T07:35:01;19.30;99.90
60033;DHT22;45905;50.570;10.428;2023-08-17T07:37:29;17.60;99.90
60033;DHT22;45905;50.570;10.428;2023-08-17T07:40:01;19.30;99.90
60033;DHT22;45905;50.570;10.428;2023-08-17T07:42:31;19.30;99.90
60033;DHT22;45905;50.570;10.428;2023-08-17T07:44:59;19.30;99.90
60033;DHT22;45905;50.570;10.428;2023-08-17T07:47:26;19.30;99.90
60033;DHT22;45905;50.570;10.428;2023-08-17T07:49:54;18.70;99.90
60033;DHT22;45905;50.570;10.428;2023-08-17T07:52:21;19.40;99.90
60033;DHT22;45905;50.570;10.428;2023-08-17T07:54:49;20.40;99.90
60033;DHT22;45905;50.570;10.428;2023-08-17T07:57:16;19.50;99.90
60033;DHT22;45905;50.570;10.428;2023-08-17T07:59:43;19.90;99.90
60033;DHT22;45905;50.570;10.428;2023-08-17T08:02:10;19.50;99.90
60033;DHT22;45905;50.570;10.428;2023-08-17T08:04:37;19.60;99.90
60033;DHT22;45905;50.570;10.428;2023-08-17T08:07:05;20.30;99.90
60033;DHT22;45905;50.570;10.428;2023-08-17T08:09:32;19.80;99.90
60033;DHT22;45905;50.570;10.428;2023-08-17T08:12:00;19.70;99.90
60033;DHT22;45905;50.570;10.428;2023-08-17T08:14:27;19.80;99.90
60033;DHT22;45905;50.570;10.428;2023-08-17T08:16:54;19.90;99.90
60033;DHT22;45905;50.570;10.428;2023-08-17T08:19:21;19.80;99.90
60033;DHT22;45905;50.570;10.428;2023-08-17T08:21:49;20.10;99.90
60033;DHT22;45905;50.570;10.428;2023-08-17T08:24:16;19.90;99.90
60033;DHT22;45905;50.570;10.428;2023-08-17T08:27:01;20.40;99.90
60033;DHT22;45905;50.570;10.428;2023-08-17T08:29:28;20.20;99.90
60033;DHT22;45905;50.570;10.428;2023-08-17T08:31:55;19.60;99.90
60033;DHT22;45905;50.570;10.428;2023-08-17T08:34:24;20.30;99.90
60033;DHT22;45905;50.570;10.428;2023-08-17T08:36:51;20.20;99.90
60033;DHT22;45905;50.570;10.428;2023-08-17T08:39:18;20.10;99.90
60033;DHT22;45905;50.570;10.428;2023-08-17T08:41:45;20.20;99.90
60033;DHT22;45905;50.570;10.428;2023-08-17T08:44:13;20.50;99.90
60033;DHT22;45905;50.570;10.428;2023-08-17T08:46:40;20.50;99.90
60033;DHT22;45905;50.570;10.428;2023-08-17T08:49:12;20.60;99.90
60033;DHT22;45905;50.570;10.428;2023-08-17T08:51:50;20.70;99.90
60033;DHT22;45905;50.570;10.428;2023-08-17T08:54:21;20.80;99.90
60033;DHT22;45905;50.570;10.428;2023-08-17T08:56:54;20.50;99.90
60033;DHT22;45905;50.570;10.428;2023-08-17T08:59:31;17.20;99.90
60033;DHT22;45905;50.570;10.428;2023-08-17T09:01:59;20.70;99.90
60033;DHT22;45905;50.570;10.428;2023-08-17T09:04:27;20.80;99.90
60033;DHT22;45905;50.570;10.428;2023-08-17T09:06:56;21.20;99.90
60033;DHT22;45905;50.570;10.428;2023-08-17T09:09:23;21.00;99.90
60033;DHT22;45905;50.570;10.428;2023-08-17T09:11:56;21.20;99.90
60033;DHT22;45905;50.570;10.428;2023-08-17T09:14:23;21.20;99.90
60033;DHT22;45905;50.570;10.428;2023-08-17T09:16:50;21.10;99.90
60033;DHT22;45905;50.570;10.428;2023-08-17T09:19:18;21.20;99.90
60033;DHT22;45905;50.570;10.428;2023-08-17T09:21:47;21.50;99.90
60033;DHT22;45905;50.570;10.428;2023-08-17T09:24:17;21.60;99.90
60033;DHT22;45905;50.570;10.428;2023-08-17T09:29:20;22.30;99.90
60033;DHT22;45905;50.570;10.428;2023-08-17T09:31:48;22.20;99.90
60033;DHT22;45905;50.570;10.428;2023-08-17T09:36:46;21.40;99.90
60033;DHT22;45905;50.570;10.428;2023-08-17T09:39:16;21.80;99.90
60033;DHT22;45905;50.570;10.428;2023-08-17T09:41:44;21.90;99.90
60033;DHT22;45905;50.570;10.428;2023-08-17T09:44:12;21.90;99.90
60033;DHT22;45905;50.570;10.428;2023-08-17T09:46:42;22.00;99.90
60033;DHT22;45905;50.570;10.428;2023-08-17T09:49:11;22.20;99.90
60033;DHT22;45905;50.570;10.428;2023-08-17T09:51:38;22.10;99.90
60033;DHT22;45905;50.570;10.428;2023-08-17T09:54:21;22.10;99.90
60033;DHT22;45905;50.570;10.428;2023-08-17T09:56:50;22.30;99.90
60033;DHT22;45905;50.570;10.428;2023-08-17T09:59:18;22.20;99.90
60033;DHT22;45905;50.570;10.428;2023-08-17T10:01:48;22.40;99.90
60033;DHT22;45905;50.570;10.428;2023-08-17T10:04:23;22.40;99.90
60033;DHT22;45905;50.570;10.428;2023-08-17T10:07:03;22.50;99.90
60033;DHT22;45905;50.570;10.428;2023-08-17T10:09:38;22.40;99.90
60033;DHT22;45905;50.570;10.428;2023-08-17T10:12:16;22.30;99.90
60033;DHT22;45905;50.570;10.428;2023-08-17T10:14:49;22.60;99.90
60033;DHT22;45905;50.570;10.428;2023-08-17T10:17:26;22.60;99.90
60033;DHT22;45905;50.570;10.428;2023-08-17T10:19:58;22.70;99.90
60033;DHT22;45905;50.570;10.428;2023-08-17T10:22:31;22.90;99.90
60033;DHT22;45905;50.570;10.428;2023-08-17T10:25:03;22.80;99.90
60033;DHT22;45905;50.570;10.428;2023-08-17T10:27:34;23.10;99.90
60033;DHT22;45905;50.570;10.428;2023-08-17T10:30:02;23.10;99.90
60033;DHT22;45905;50.570;10.428;2023-08-17T10:32:35;23.00;99.90
60033;DHT22;45905;50.570;10.428;2023-08-17T10:35:04;23.10;99.90
60033;DHT22;45905;50.570;10.428;2023-08-17T10:37:33;23.40;99.90
60033;DHT22;45905;50.570;10.428;2023-08-17T10:40:01;23.10;99.90
60033;DHT22;45905;50.570;10.428;2023-08-17T10:45:00;23.80;99.90
60033;DHT22;45905;50.570;10.428;2023-08-17T10:47:31;23.40;99.90
60033;DHT22;45905;50.570;10.428;2023-08-17T10:50:05;23.40;99.90
60033;DHT22;45905;50.570;10.428;2023-08-17T10:52:36;23.40;99.90
60033;DHT22;45905;50.570;10.428;2023-08-17T10:55:07;23.40;99.90
60033;DHT22;45905;50.570;10.428;2023-08-17T10:57:39;23.50;99.90
60033;DHT22;45905;50.570;10.428;2023-08-17T11:00:24;23.80;99.90
60033;DHT22;45905;50.570;10.428;2023-08-17T11:02:56;23.60;99.90
60033;DHT22;45905;50.570;10.428;2023-08-17T11:05:44;23.90;99.90
60033;DHT22;45905;50.570;10.428;2023-08-17T11:08:28;23.60;99.90
60033;DHT22;45905;50.570;10.428;2023-08-17T11:13:28;23.80;99.90
60033;DHT22;45905;50.570;10.428;2023-08-17T11:15:57;23.50;99.90
60033;DHT22;45905;50.570;10.428;2023-08-17T11:18:30;24.00;99.90
60033;DHT22;45905;50.570;10.428;2023-08-17T11:20:58;24.20;99.90
60033;DHT22;45905;50.570;10.428;2023-08-17T11:23:32;24.50;99.90
60033;DHT22;45905;50.570;10.428;2023-08-17T11:26:00;24.40;99.90
60033;DHT22;45905;50.570;10.428;2023-08-17T11:28:30;24.20;99.90
60033;DHT22;45905;50.570;10.428;2023-08-17T11:31:10;24.40;99.90
60033;DHT22;45905;50.570;10.428;2023-08-17T11:33:39;24.60;99.90
60033;DHT22;45905;50.570;10.428;2023-08-17T11:36:08;22.50;99.90
60033;DHT22;45905;50.570;10.428;2023-08-17T11:38:39;23.40;99.90
60033;DHT22;45905;50.570;10.428;2023-08-17T11:41:08;24.60;99.90
60033;DHT22;45905;50.570;10.428;2023-08-17T11:43:37;24.80;99.90
60033;DHT22;45905;50.570;10.428;2023-08-17T11:46:04;24.80;99.90
60033;DHT22;45905;50.570;10.428;2023-08-17T11:48:32;24.30;99.90
60033;DHT22;45905;50.570;10.428;2023-08-17T11:53:38;24.90;99.90
60033;DHT22;45905;50.570;10.428;2023-08-17T11:56:07;25.00;99.90
60033;DHT22;45905;50.570;10.428;2023-08-17T11:58:45;25.30;99.90
60033;DHT22;45905;50.570;10.428;2023-08-17T12:01:14;25.20;99.90
60033;DHT22;45905;50.570;10.428;2023-08-17T12:03:45;25.40;99.90
60033;DHT22;45905;50.570;10.428;2023-08-17T12:06:16;25.50;99.90
60033;DHT22;45905;50.570;10.428;2023-08-17T12:08:45;25.50;99.90
60033;DHT22;45905;50.570;10.428;2023-08-17T12:11:18;25.50;99.90
60033;DHT22;45905;50.570;10.428;2023-08-17T12:13:50;25.70;99.90
60033;DHT22;45905;50.570;10.428;2023-08-17T12:16:21;25.60;99.90
60033;DHT22;45905;50.570;10.428;2023-08-17T12:18:51;25.20;99.90
60033;DHT22;45905;50.570;10.428;2023-08-17T12:21:22;26.10;99.90
60033;DHT22;45905;50.570;10.428;2023-08-17T12:23:50;26.10;99.90
60033;DHT22;45905;50.570;10.428;2023-08-17T12:26:19;26.30;99.90
60033;DHT22;45905;50.570;10.428;2023-08-17T12:31:14;26.80;99.90
60033;DHT22;45905;50.570;10.428;2023-08-17T12:36:16;26.80;99.90
60033;DHT22;45905;50.570;10.428;2023-08-17T12:38:44;26.70;99.90
60033;DHT22;45905;50.570;10.428;2023-08-17T12:41:13;27.40;99.90
60033;DHT22;45905;50.570;10.428;2023-08-17T12:43:40;27.10;99.90
60033;DHT22;45905;50.570;10.428;2023-08-17T12:46:08;26.90;99.90
60033;DHT22;45905;50.570;10.428;2023-08-17T12:48:35;27.30;99.90
60033;DHT22;45905;50.570;10.428;2023-08-17T12:51:02;27.30;99.90
60033;DHT22;45905;50.570;10.428;2023-08-17T12:53:31;27.60;99.90
60033;DHT22;45905;50.570;10.428;2023-08-17T12:55:58;27.30;99.90
60033;DHT22;45905;50.570;10.428;2023-08-17T12:58:26;27.80;99.50
60033;DHT22;45905;50.570;10.428;2023-08-17T13:00:53;27.90;99.90
60033;DHT22;45905;50.570;10.428;2023-08-17T13:03:21;28.00;99.70
60033;DHT22;45905;50.570;10.428;2023-08-17T13:05:49;27.80;99.80
60033;DHT22;45905;50.570;10.428;2023-08-17T13:08:16;27.80;99.90
60033;DHT22;45905;50.570;10.428;2023-08-17T13:10:43;28.10;99.90
60033;DHT22;45905;50.570;10.428;2023-08-17T13:13:11;27.70;99.10
60033;DHT22;45905;50.570;10.428;2023-08-17T13:15:38;27.70;99.00
60033;DHT22;45905;50.570;10.428;2023-08-17T13:18:05;28.10;99.20
60033;DHT22;45905;50.570;10.428;2023-08-17T13:20:33;28.60;98.80
60033;DHT22;45905;50.570;10.428;2023-08-17T13:23:00;28.30;99.00
60033;DHT22;45905;50.570;10.428;2023-08-17T13:25:27;28.20;98.60
60033;DHT22;45905;50.570;10.428;2023-08-17T13:27:54;28.10;97.90
60033;DHT22;45905;50.570;10.428;2023-08-17T13:30:22;28.90;97.70
60033;DHT22;45905;50.570;10.428;2023-08-17T13:32:50;28.60;97.50
60033;DHT22;45905;50.570;10.428;2023-08-17T13:35:17;28.70;97.80
60033;DHT22;45905;50.570;10.428;2023-08-17T13:37:45;28.80;98.30
60033;DHT22;45905;50.570;10.428;2023-08-17T13:40:13;28.40;97.30
60033;DHT22;45905;50.570;10.428;2023-08-17T13:42:40;28.70;97.50
60033;DHT22;45905;50.570;10.428;2023-08-17T13:45:07;28.60;97.30
60033;DHT22;45905;50.570;10.428;2023-08-17T13:47:35;28.80;97.40
60033;DHT22;45905;50.570;10.428;2023-08-17T13:50:02;28.90;97.00
60033;DHT22;45905;50.570;10.428;2023-08-17T13:52:30;29.50;97.20
60033;DHT22;45905;50.570;10.428;2023-08-17T13:54:58;29.10;96.60
60033;DHT22;45905;50.570;10.428;2023-08-17T13:57:25;29.10;96.60
60033;DHT22;45905;50.570;10.428;2023-08-17T13:59:52;28.90;96.50
60033;DHT22;45905;50.570;10.428;2023-08-17T14:02:19;29.00;96.60
60033;DHT22;45905;50.570;10.428;2023-08-17T14:04:47;29.30;96.60
60033;DHT22;45905;50.570;10.428;2023-08-17T14:07:14;29.20;96.40
60033;DHT22;45905;50.570;10.428;2023-08-17T14:09:41;29.10;96.20
60033;DHT22;45905;50.570;10.428;2023-08-17T14:12:28;29.10;96.00
60033;DHT22;45905;50.570;10.428;2023-08-17T14:14:55;29.40;96.30
60033;DHT22;45905;50.570;10.428;2023-08-17T14:17:22;29.30;96.20
60033;DHT22;45905;50.570;10.428;2023-08-17T14:19:49;29.30;95.70
60033;DHT22;45905;50.570;10.428;2023-08-17T14:22:17;29.50;96.00
60033;DHT22;45905;50.570;10.428;2023-08-17T14:24:44;29.50;95.40
60033;DHT22;45905;50.570;10.428;2023-08-17T14:27:11;29.40;95.60
60033;DHT22;45905;50.570;10.428;2023-08-17T14:29:38;29.70;95.70
60033;DHT22;45905;50.570;10.428;2023-08-17T14:32:06;29.60;95.80
60033;DHT22;45905;50.570;10.428;2023-08-17T14:34:33;29.50;95.30
60033;DHT22;45905;50.570;10.428;2023-08-17T14:37:01;29.60;95.50
60033;DHT22;45905;50.570;10.428;2023-08-17T14:39:28;29.80;95.40
60033;DHT22;45905;50.570;10.428;2023-08-17T14:41:55;29.70;95.20
60033;DHT22;45905;50.570;10.428;2023-08-17T14:44:23;29.70;95.10
60033;DHT22;45905;50.570;10.428;2023-08-17T14:46:50;29.50;94.80
60033;DHT22;45905;50.570;10.428;2023-08-17T14:49:17;29.80;95.00
60033;DHT22;45905;50.570;10.428;2023-08-17T14:51:44;29.30;94.30
60033;DHT22;45905;50.570;10.428;2023-08-17T14:54:11;29.70;94.70
60033;DHT22;45905;50.570;10.428;2023-08-17T14:56:38;29.70;94.50
60033;DHT22;45905;50.570;10.428;2023-08-17T14:59:06;29.70;94.90
60033;DHT22;45905;50.570;10.428;2023-08-17T15:01:36;29.70;95.00
60033;DHT22;45905;50.570;10.428;2023-08-17T15:04:04;29.70;94.70
60033;DHT22;45905;50.570;10.428;2023-08-17T15:06:31;29.50;94.50
60033;DHT22;45905;50.570;10.428;2023-08-17T15:09:01;29.50;94.60
60033;DHT22;45905;50.570;10.428;2023-08-17T15:11:30;29.40;94.60
60033;DHT22;45905;50.570;10.428;2023-08-17T15:13:57;29.40;94.70
60033;DHT22;45905;50.570;10.428;2023-08-17T15:16:24;29.40;95.00
60033;DHT22;45905;50.570;10.428;2023-08-17T15:18:55;29.40;94.90
60033;DHT22;45905;50.570;10.428;2023-08-17T15:21:22;29.30;95.00
60033;DHT22;45905;50.570;10.428;2023-08-17T15:23:49;29.20;94.60
60033;DHT22;45905;50.570;10.428;2023-08-17T15:26:16;29.20;94.40
60033;DHT22;45905;50.570;10.428;2023-08-17T15:28:44;28.80;94.40
60033;DHT22;45905;50.570;10.428;2023-08-17T15:31:12;29.20;94.40
60033;DHT22;45905;50.570;10.428;2023-08-17T15:33:40;29.40;94.60
60033;DHT22;45905;50.570;10.428;2023-08-17T15:36:08;29.40;94.30
60033;DHT22;45905;50.570;10.428;2023-08-17T15:38:35;29.20;94.30
60033;DHT22;45905;50.570;10.428;2023-08-17T15:41:02;29.20;94.50
60033;DHT22;45905;50.570;10.428;2023-08-17T15:43:30;29.00;94.20
60033;DHT22;45905;50.570;10.428;2023-08-17T15:45:57;28.70;94.20
60033;DHT22;45905;50.570;10.428;2023-08-17T15:48:25;29.00;94.40